< Typhoon 198205 1982 Season Typhoon 198207 >
Typhoon 198206 (TESS/VAL)
General InformationTrack Information on Google MapsDetailed Wind InformationList of All Images || Disaster Info.ResourceGoogle EarthGE AnimationAtom FeedGeoJSON
Detalied Best Track (Time Zone = UTC)
Year Month Day Hour Lat. Long. Pressure (hPa) Wind (kt) Class Image Chart
1982 6 25 00 17.5 114.0 1002 0 2 Image Chart
1982 6 25 06 18.0 115.0 1000 0 2 Image Chart
1982 6 25 12 18.0 115.5 1002 0 2 Image Chart
1982 6 25 18 18.0 116.0 1002 0 2 Image Chart
1982 6 26 00 18.0 116.0 1002 0 2 Image Chart
1982 6 26 06 18.0 115.5 1000 0 2 Image Chart
1982 6 26 12 17.5 115.0 1000 0 2 Image Chart
1982 6 26 18 17.0 115.0 1000 0 2 Image Chart
1982 6 27 00 17.0 115.0 998 0 2 Image Chart
1982 6 27 06 17.0 115.0 996 0 2 Image Chart
1982 6 27 12 17.0 115.0 996 0 2 Image Chart
1982 6 27 18 17.0 115.0 994 0 2 Image Chart
1982 6 28 00 17.2 114.6 994 0 2 Image Chart
1982 6 28 06 17.5 114.3 992 40 3 Image Chart
1982 6 28 12 17.8 114.0 990 45 3 Image Chart
1982 6 28 18 18.1 113.7 990 45 3 Image Chart
1982 6 29 00 18.5 113.5 990 45 3 Image Chart
1982 6 29 06 19.1 113.2 992 45 3 Image Chart
1982 6 29 12 19.7 113.0 994 45 3 Image Chart
1982 6 29 18 20.3 112.7 994 45 3 Image Chart
1982 6 30 00 21.0 112.5 996 40 3 Image Chart
1982 6 30 06 21.4 112.5 996 40 3 Image Chart
1982 6 30 12 21.7 113.0 996 40 3 Image Chart
1982 6 30 18 21.9 113.8 996 40 3 Image Chart
1982 7 1 00 22.0 115.0 996 40 3 Image Chart
1982 7 1 06 22.0 116.0 996 40 3 Image Chart
1982 7 1 12 22.0 117.2 996 35 3 Image Chart
1982 7 1 18 22.0 118.9 996 0 2 Image Chart
1982 7 2 00 22.2 120.6 996 0 2 Image Chart
1982 7 2 06 22.3 122.3 996 0 2 Image Chart
1982 7 2 12 22.8 124.2 996 0 2 Image Chart
1982 7 2 18 24.0 126.0 994 0 2 Image Chart
1982 7 3 00 24.7 127.8 985 40 3 Image Chart
1982 7 3 06 25.5 129.7 990 40 3 Image Chart
1982 7 3 12 26.5 131.8 994 0 2 Image Chart
1982 7 3 18 27.6 134.5 996 0 2 Image Chart
1982 7 4 00 29.0 138.0 998 0 6 Image Chart
1982 7 4 06 30.0 141.0 1000 0 6 Image Chart
1982 7 4 12 30.5 144.5 1002 0 6 Image Chart
1982 7 4 18 31.0 148.0 1004 0 6 Image Chart
1982 7 5 00 31.0 151.0 1006 0 6 Image Chart
1982 7 5 06 31.0 153.0 1006 0 6 Image Chart
1982 7 5 12 31.0 155.0 1008 0 6 Image Chart
1982 7 5 18 31.0 157.0 1008 0 6 Image Chart
1982 7 6 00 31.0 159.0 1010 0 6 Image Chart
1982 7 6 06 31.0 160.0 1010 0 6 Image Chart
Japan Meteorological Agency Best Track Data | Correction Date : 1993-07-14
< Typhoon 198205 1982 Season Typhoon 198207 >

Help